Askabat — TCCA7 — position and weather

sailwx.info

Track history (hours):
 
Tides and Currents Weather Stations Pressure Air Temp Water Temp Dewpoint Dewpoint Depression Visibility Wind Speed Wind Dir Waves Ship Positions

Askabat

Last reported at 2017-Oct-15 02:15 UTC. Time now 2017-Oct-17 01:06 UTC.
Position N 36°26' E 015°33'.

Length 163 m; draft 6.4 m.

Type: Cargo ship. MMSI: 271000672.

Date/timePositionNaut miles runAvg speedWind from/ knotsBaromVisibWave heightAir tempDewpointWater temp
2017-Oct-15 02:15N 36°26' E 015°33'713.7
2017-Oct-15 01:46N 36°26' E 015°25'413.8
2017-Oct-15 01:29N 36°26' E 015°20'713.9
2017-Oct-15 01:00N 36°26' E 015°12'714.3
2017-Oct-15 00:29N 36°26' E 015°03'714.6
2017-Oct-15 00:00N 36°27' E 014°54'714.8
2017-Oct-14 23:30N 36°28' E 014°45'815.1
2017-Oct-14 23:00N 36°30' E 014°36'715.3
2017-Oct-14 22:30N 36°32' E 014°26'815.2
2017-Oct-14 22:00N 36°34' E 014°18'715.0
2017-Oct-14 21:31N 36°36' E 014°09'714.9
2017-Oct-14 21:00N 36°38' E 013°60'714.9
2017-Oct-14 20:31N 36°41' E 013°51'814.9
2017-Oct-14 19:59N 36°43' E 013°41'714.7
2017-Oct-14 19:30N 36°45' E 013°33'814.7
2017-Oct-14 18:57N 36°47' E 013°23'714.5
2017-Oct-14 18:30N 36°49' E 013°16'714.4
2017-Oct-14 18:00N 36°51' E 013°07'714.5
2017-Oct-14 17:30N 36°53' E 012°58'33513.9
2017-Oct-13 17:24N 37°24' E 005°59'513.7
2017-Oct-13 17:00N 37°23' E 005°52'1013.7
2017-Oct-13 16:17N 37°22' E 005°40'513.5
2017-Oct-13 15:54N 37°21' E 005°33'513.6
2017-Oct-13 15:30N 37°21' E 005°27'713.7
2017-Oct-13 15:00N 37°20' E 005°18'4213.8
2017-Oct-13 11:58N 37°16' E 004°26'2414.2
2017-Oct-13 10:14N 37°13' E 003°55'4114.2
2017-Oct-13 07:20N 37°05' E 003°04'1614.4
2017-Oct-13 06:11N 37°02' E 002°44'314.5
2017-Oct-13 06:00N 37°01' E 002°41'3114.3
2017-Oct-13 03:51N 36°55' E 002°03'714.2
2017-Oct-13 03:23N 36°54' E 001°55'514.3
2017-Oct-13 03:00N 36°53' E 001°48'914.4
2017-Oct-13 02:23N 36°51' E 001°37'514.2
2017-Oct-13 02:00N 36°50' E 001°31'714.2
2017-Oct-13 01:30N 36°49' E 001°22'713.8
2017-Oct-13 01:00N 36°48' E 001°13'713.6
2017-Oct-13 00:30N 36°47' E 001°05'713.5
2017-Oct-13 00:00N 36°46' E 000°57'713.3
2017-Oct-12 23:30N 36°45' E 000°49'713.8
2017-Oct-12 23:00N 36°44' E 000°40'713.9
2017-Oct-12 22:30N 36°42' E 000°32'813.9
2017-Oct-12 21:55N 36°41' E 000°22'613.8
2017-Oct-12 21:30N 36°40' E 000°15'713.8
2017-Oct-12 21:00N 36°38' E 000°06'713.7
2017-Oct-12 20:30N 36°37' W 000°02'713.9
2017-Oct-12 20:00N 36°36' W 000°11'714.0
2017-Oct-12 19:30N 36°34' W 000°19'713.9
2017-Oct-12 19:00N 36°33' W 000°28'713.7
2017-Oct-12 18:30N 36°32' W 000°36'713.9
2017-Oct-12 18:01N 36°31' W 000°45'714.1
2017-Oct-12 17:29N 36°29' W 000°53'714.0
2017-Oct-12 17:00N 36°28' W 001°02'714.3
2017-Oct-12 16:31N 36°27' W 001°10'714.3
2017-Oct-12 16:00N 36°25' W 001°19'814.8
2017-Oct-12 15:29N 36°24' W 001°29'815.3
2017-Oct-12 14:56N 36°22' W 001°39'715.0
2017-Oct-12 14:30N 36°21' W 001°47'1114.6
2017-Oct-12 13:43N 36°19' W 002°01'14211.4
2017-Oct-12 01:17N 36°02' W 004°55'412.8
2017-Oct-12 00:59N 36°02' W 004°60'713.1
2017-Oct-12 00:30N 36°01' W 005°08'713.5
2017-Oct-12 00:01N 36°00' W 005°16'713.4
2017-Oct-11 23:30N 35°59' W 005°24'713.3
2017-Oct-11 23:00N 35°57' W 005°31'713.6
2017-Oct-11 22:29N 35°55' W 005°40'713.8
2017-Oct-11 21:59N 35°55' W 005°49'713.7
2017-Oct-11 21:31N 35°55' W 005°57'713.3
2017-Oct-11 21:00N 35°54' W 006°05'2312.7
2017-Oct-11 19:08N 35°57' W 006°34'2912.3
2017-Oct-11 16:47N 36°05' W 007°08'19411.5
2017-Oct-11 00:00N 38°22' W 009°60'714.3
2017-Oct-10 23:31N 38°29' W 010°02'714.4
2017-Oct-10 23:01N 38°36' W 010°04'713.7
2017-Oct-10 22:30N 38°43' W 010°05'713.7
2017-Oct-10 22:01N 38°50' W 010°05'714.7
2017-Oct-10 21:31N 38°57' W 010°05'714.7
2017-Oct-10 21:01N 39°05' W 010°05'815.1
2017-Oct-10 20:31N 39°12' W 010°05'714.3
2017-Oct-10 20:01N 39°19' W 010°05'713.9
2017-Oct-10 19:30N 39°26' W 010°04'713.5
2017-Oct-10 19:01N 39°33' W 010°04'714.1
2017-Oct-10 18:31N 39°38' W 009°57'714.4
2017-Oct-10 18:00N 39°44' W 009°51'714.1
2017-Oct-10 17:30N 39°49' W 009°45'713.7
2017-Oct-10 17:00N 39°54' W 009°39'713.8
2017-Oct-10 16:30N 39°59' W 009°33'714.1
2017-Oct-10 16:00N 40°05' W 009°27'713.7
2017-Oct-10 15:30N 40°10' W 009°21'714.1
2017-Oct-10 15:00N 40°15' W 009°15'1414.0
2017-Oct-10 14:00N 40°26' W 009°03'713.8
2017-Oct-10 13:30N 40°31' W 008°57'14 0.8
2017-Oct-09 19:36N 40°39' W 008°43'0 0.0
2017-Oct-09 19:30N 40°39' W 008°43'0 0.0
2017-Oct-09 15:39N 40°39' W 008°43'0 0.0
2017-Oct-09 15:27N 40°39' W 008°43'0 0.0
2017-Oct-09 14:57N 40°39' W 008°43'0 0.0
2017-Oct-09 14:27N 40°39' W 008°43'0 0.0
2017-Oct-09 14:00N 40°39' W 008°43'0 0.0
2017-Oct-09 13:30N 40°39' W 008°43'0 0.0
2017-Oct-09 13:00N 40°39' W 008°43'0 0.0
2017-Oct-09 12:30N 40°39' W 008°43'  
2017-Oct-07 03:47N 40°40' W 008°49'0 0.0
2017-Oct-07 01:56N 40°40' W 008°49'0 0.0
2017-Oct-07 01:26N 40°40' W 008°49'0 0.0
2017-Oct-06 21:17N 40°40' W 008°49'0 0.1
2017-Oct-06 20:56N 40°40' W 008°49'0 0.0
2017-Oct-06 20:29N 40°40' W 008°49'0 0.0
2017-Oct-06 19:59N 40°40' W 008°49'0 0.0
2017-Oct-06 19:29N 40°40' W 008°49'0 0.0
2017-Oct-06 18:38N 40°40' W 008°49'0 0.0
2017-Oct-06 17:44N 40°40' W 008°49'0 0.0
2017-Oct-06 17:20N 40°40' W 008°49'0 0.0
2017-Oct-06 16:59N 40°40' W 008°49'15 0.7
2017-Oct-05 19:24N 40°27' W 008°59'513.4
2017-Oct-05 19:00N 40°22' W 009°03'713.3
2017-Oct-05 18:30N 40°17' W 009°08'4313.5
2017-Oct-05 15:19N 39°42' W 009°40'413.4
2017-Oct-05 15:00N 39°37' W 009°41'813.6
2017-Oct-05 14:26N 39°30' W 009°43'613.9
2017-Oct-05 14:00N 39°24' W 009°44'714.0
2017-Oct-05 13:30N 39°17' W 009°46'713.8
2017-Oct-05 13:00N 39°10' W 009°47'713.5
2017-Oct-05 12:30N 39°04' W 009°48'713.4
2017-Oct-05 12:00N 38°57' W 009°50'713.5
2017-Oct-05 11:30N 38°50' W 009°51'713.3
2017-Oct-05 11:00N 38°44' W 009°51'713.3
2017-Oct-05 10:30N 38°37' W 009°49'713.1
2017-Oct-05 10:00N 38°31' W 009°47'713.1
2017-Oct-05 09:30N 38°24' W 009°45'612.9
2017-Oct-05 09:00N 38°18' W 009°43'612.9
2017-Oct-05 08:31N 38°12' W 009°42'713.0
2017-Oct-05 08:01N 38°05' W 009°40'613.0
2017-Oct-05 07:31N 37°59' W 009°38'713.2
2017-Oct-05 07:00N 37°53' W 009°36'713.4
2017-Oct-05 06:31N 37°46' W 009°34'713.3
2017-Oct-05 06:00N 37°40' W 009°32'713.5
2017-Oct-05 05:30N 37°33' W 009°29'713.6
2017-Oct-05 05:01N 37°27' W 009°27'713.3
2017-Oct-05 04:30N 37°20' W 009°26'713.3
2017-Oct-05 04:01N 37°14' W 009°24'713.0
2017-Oct-05 03:30N 37°07' W 009°22'612.6
2017-Oct-05 03:01N 37°01' W 009°20'612.8
2017-Oct-05 02:31N 36°55' W 009°19'  
Track history (hours):
 
Tides and Currents Weather Stations Pressure Air Temp Water Temp Dewpoint Dewpoint Depression Visibility Wind Speed Wind Dir Waves Ship Positions

Askabat

Last reported at 2017-Oct-15 02:15 UTC. Time now 2017-Oct-17 01:06 UTC.
Position N 36°26' E 015°33'.

Length 163 m; draft 6.4 m.

Type: Cargo ship. MMSI: 271000672.

Date/timePositionNaut miles runAvg speedWind from/ knotsBaromVisibWave heightAir tempDewpointWater temp
2017-Oct-15 02:15N 36°26' E 015°33'713.7
2017-Oct-15 01:46N 36°26' E 015°25'413.8
2017-Oct-15 01:29N 36°26' E 015°20'713.9
2017-Oct-15 01:00N 36°26' E 015°12'714.3
2017-Oct-15 00:29N 36°26' E 015°03'714.6
2017-Oct-15 00:00N 36°27' E 014°54'714.8
2017-Oct-14 23:30N 36°28' E 014°45'815.1
2017-Oct-14 23:00N 36°30' E 014°36'715.3
2017-Oct-14 22:30N 36°32' E 014°26'815.2
2017-Oct-14 22:00N 36°34' E 014°18'715.0
2017-Oct-14 21:31N 36°36' E 014°09'714.9
2017-Oct-14 21:00N 36°38' E 013°60'714.9
2017-Oct-14 20:31N 36°41' E 013°51'814.9
2017-Oct-14 19:59N 36°43' E 013°41'714.7
2017-Oct-14 19:30N 36°45' E 013°33'814.7
2017-Oct-14 18:57N 36°47' E 013°23'714.5
2017-Oct-14 18:30N 36°49' E 013°16'714.4
2017-Oct-14 18:00N 36°51' E 013°07'714.5
2017-Oct-14 17:30N 36°53' E 012°58'33513.9
2017-Oct-13 17:24N 37°24' E 005°59'513.7
2017-Oct-13 17:00N 37°23' E 005°52'1013.7
2017-Oct-13 16:17N 37°22' E 005°40'513.5
2017-Oct-13 15:54N 37°21' E 005°33'513.6
2017-Oct-13 15:30N 37°21' E 005°27'713.7
2017-Oct-13 15:00N 37°20' E 005°18'4213.8
2017-Oct-13 11:58N 37°16' E 004°26'2414.2
2017-Oct-13 10:14N 37°13' E 003°55'4114.2
2017-Oct-13 07:20N 37°05' E 003°04'1614.4
2017-Oct-13 06:11N 37°02' E 002°44'314.5
2017-Oct-13 06:00N 37°01' E 002°41'3114.3
2017-Oct-13 03:51N 36°55' E 002°03'714.2
2017-Oct-13 03:23N 36°54' E 001°55'514.3
2017-Oct-13 03:00N 36°53' E 001°48'914.4
2017-Oct-13 02:23N 36°51' E 001°37'514.2
2017-Oct-13 02:00N 36°50' E 001°31'714.2
2017-Oct-13 01:30N 36°49' E 001°22'713.8
2017-Oct-13 01:00N 36°48' E 001°13'713.6
2017-Oct-13 00:30N 36°47' E 001°05'713.5
2017-Oct-13 00:00N 36°46' E 000°57'713.3
2017-Oct-12 23:30N 36°45' E 000°49'713.8
2017-Oct-12 23:00N 36°44' E 000°40'713.9
2017-Oct-12 22:30N 36°42' E 000°32'813.9
2017-Oct-12 21:55N 36°41' E 000°22'613.8
2017-Oct-12 21:30N 36°40' E 000°15'713.8
2017-Oct-12 21:00N 36°38' E 000°06'713.7
2017-Oct-12 20:30N 36°37' W 000°02'713.9
2017-Oct-12 20:00N 36°36' W 000°11'714.0
2017-Oct-12 19:30N 36°34' W 000°19'713.9
2017-Oct-12 19:00N 36°33' W 000°28'713.7
2017-Oct-12 18:30N 36°32' W 000°36'713.9
2017-Oct-12 18:01N 36°31' W 000°45'714.1
2017-Oct-12 17:29N 36°29' W 000°53'714.0
2017-Oct-12 17:00N 36°28' W 001°02'714.3
2017-Oct-12 16:31N 36°27' W 001°10'714.3
2017-Oct-12 16:00N 36°25' W 001°19'814.8
2017-Oct-12 15:29N 36°24' W 001°29'815.3
2017-Oct-12 14:56N 36°22' W 001°39'715.0
2017-Oct-12 14:30N 36°21' W 001°47'1114.6
2017-Oct-12 13:43N 36°19' W 002°01'14211.4
2017-Oct-12 01:17N 36°02' W 004°55'412.8
2017-Oct-12 00:59N 36°02' W 004°60'713.1
2017-Oct-12 00:30N 36°01' W 005°08'713.5
2017-Oct-12 00:01N 36°00' W 005°16'713.4
2017-Oct-11 23:30N 35°59' W 005°24'713.3
2017-Oct-11 23:00N 35°57' W 005°31'713.6
2017-Oct-11 22:29N 35°55' W 005°40'713.8
2017-Oct-11 21:59N 35°55' W 005°49'713.7
2017-Oct-11 21:31N 35°55' W 005°57'713.3
2017-Oct-11 21:00N 35°54' W 006°05'2312.7
2017-Oct-11 19:08N 35°57' W 006°34'2912.3
2017-Oct-11 16:47N 36°05' W 007°08'19411.5
2017-Oct-11 00:00N 38°22' W 009°60'714.3
2017-Oct-10 23:31N 38°29' W 010°02'714.4
2017-Oct-10 23:01N 38°36' W 010°04'713.7
2017-Oct-10 22:30N 38°43' W 010°05'713.7
2017-Oct-10 22:01N 38°50' W 010°05'714.7
2017-Oct-10 21:31N 38°57' W 010°05'714.7
2017-Oct-10 21:01N 39°05' W 010°05'815.1
2017-Oct-10 20:31N 39°12' W 010°05'714.3
2017-Oct-10 20:01N 39°19' W 010°05'713.9
2017-Oct-10 19:30N 39°26' W 010°04'713.5
2017-Oct-10 19:01N 39°33' W 010°04'714.1
2017-Oct-10 18:31N 39°38' W 009°57'714.4
2017-Oct-10 18:00N 39°44' W 009°51'714.1
2017-Oct-10 17:30N 39°49' W 009°45'713.7
2017-Oct-10 17:00N 39°54' W 009°39'713.8
2017-Oct-10 16:30N 39°59' W 009°33'714.1
2017-Oct-10 16:00N 40°05' W 009°27'713.7
2017-Oct-10 15:30N 40°10' W 009°21'714.1
2017-Oct-10 15:00N 40°15' W 009°15'1414.0
2017-Oct-10 14:00N 40°26' W 009°03'713.8
2017-Oct-10 13:30N 40°31' W 008°57'14 0.8
2017-Oct-09 19:36N 40°39' W 008°43'0 0.0
2017-Oct-09 19:30N 40°39' W 008°43'0 0.0
2017-Oct-09 15:39N 40°39' W 008°43'0 0.0
2017-Oct-09 15:27N 40°39' W 008°43'0 0.0
2017-Oct-09 14:57N 40°39' W 008°43'0 0.0
2017-Oct-09 14:27N 40°39' W 008°43'0 0.0
2017-Oct-09 14:00N 40°39' W 008°43'0 0.0
2017-Oct-09 13:30N 40°39' W 008°43'0 0.0
2017-Oct-09 13:00N 40°39' W 008°43'0 0.0
2017-Oct-09 12:30N 40°39' W 008°43'  
2017-Oct-07 03:47N 40°40' W 008°49'0 0.0
2017-Oct-07 01:56N 40°40' W 008°49'0 0.0
2017-Oct-07 01:26N 40°40' W 008°49'0 0.0
2017-Oct-06 21:17N 40°40' W 008°49'0 0.1
2017-Oct-06 20:56N 40°40' W 008°49'0 0.0
2017-Oct-06 20:29N 40°40' W 008°49'0 0.0
2017-Oct-06 19:59N 40°40' W 008°49'0 0.0
2017-Oct-06 19:29N 40°40' W 008°49'0 0.0
2017-Oct-06 18:38N 40°40' W 008°49'0 0.0
2017-Oct-06 17:44N 40°40' W 008°49'0 0.0
2017-Oct-06 17:20N 40°40' W 008°49'0 0.0
2017-Oct-06 16:59N 40°40' W 008°49'15 0.7
2017-Oct-05 19:24N 40°27' W 008°59'513.4
2017-Oct-05 19:00N 40°22' W 009°03'713.3
2017-Oct-05 18:30N 40°17' W 009°08'4313.5
2017-Oct-05 15:19N 39°42' W 009°40'413.4
2017-Oct-05 15:00N 39°37' W 009°41'813.6
2017-Oct-05 14:26N 39°30' W 009°43'613.9
2017-Oct-05 14:00N 39°24' W 009°44'714.0
2017-Oct-05 13:30N 39°17' W 009°46'713.8
2017-Oct-05 13:00N 39°10' W 009°47'713.5
2017-Oct-05 12:30N 39°04' W 009°48'713.4
2017-Oct-05 12:00N 38°57' W 009°50'713.5
2017-Oct-05 11:30N 38°50' W 009°51'713.3
2017-Oct-05 11:00N 38°44' W 009°51'713.3
2017-Oct-05 10:30N 38°37' W 009°49'713.1
2017-Oct-05 10:00N 38°31' W 009°47'713.1
2017-Oct-05 09:30N 38°24' W 009°45'612.9
2017-Oct-05 09:00N 38°18' W 009°43'612.9
2017-Oct-05 08:31N 38°12' W 009°42'713.0
2017-Oct-05 08:01N 38°05' W 009°40'613.0
2017-Oct-05 07:31N 37°59' W 009°38'713.2
2017-Oct-05 07:00N 37°53' W 009°36'713.4
2017-Oct-05 06:31N 37°46' W 009°34'713.3
2017-Oct-05 06:00N 37°40' W 009°32'713.5
2017-Oct-05 05:30N 37°33' W 009°29'713.6
2017-Oct-05 05:01N 37°27' W 009°27'713.3
2017-Oct-05 04:30N 37°20' W 009°26'713.3
2017-Oct-05 04:01N 37°14' W 009°24'713.0
2017-Oct-05 03:30N 37°07' W 009°22'612.6
2017-Oct-05 03:01N 37°01' W 009°20'612.8
2017-Oct-05 02:31N 36°55' W 009°19'  

Dump ship's entire track history